sensor_id;sensor_type;location;lat;lon;timestamp;temperature;humidity
2993;DHT22;1506;48.932;9.478;2022-11-22T00:00:40;5.60;99.90
2993;DHT22;1506;48.932;9.478;2022-11-22T00:03:08;5.60;99.90
2993;DHT22;1506;48.932;9.478;2022-11-22T00:05:35;5.60;99.90
2993;DHT22;1506;48.932;9.478;2022-11-22T00:08:02;5.60;99.90
2993;DHT22;1506;48.932;9.478;2022-11-22T00:10:30;5.50;99.90
2993;DHT22;1506;48.932;9.478;2022-11-22T00:12:57;5.50;99.90
2993;DHT22;1506;48.932;9.478;2022-11-22T00:15:24;5.40;99.90
2993;DHT22;1506;48.932;9.478;2022-11-22T00:17:51;5.50;99.90
2993;DHT22;1506;48.932;9.478;2022-11-22T00:20:18;5.50;99.90
2993;DHT22;1506;48.932;9.478;2022-11-22T00:22:45;5.60;99.90
2993;DHT22;1506;48.932;9.478;2022-11-22T00:25:12;5.50;99.90
2993;DHT22;1506;48.932;9.478;2022-11-22T00:27:40;5.50;99.90
2993;DHT22;1506;48.932;9.478;2022-11-22T00:30:08;5.50;99.90
2993;DHT22;1506;48.932;9.478;2022-11-22T00:32:35;5.50;99.90
2993;DHT22;1506;48.932;9.478;2022-11-22T00:35:03;5.60;99.90
2993;DHT22;1506;48.932;9.478;2022-11-22T00:37:30;5.60;99.90
2993;DHT22;1506;48.932;9.478;2022-11-22T00:39:57;5.60;99.90
2993;DHT22;1506;48.932;9.478;2022-11-22T00:42:24;5.60;99.90
2993;DHT22;1506;48.932;9.478;2022-11-22T00:44:51;5.50;99.90
2993;DHT22;1506;48.932;9.478;2022-11-22T00:47:18;5.50;99.90
2993;DHT22;1506;48.932;9.478;2022-11-22T00:49:45;5.50;99.90
2993;DHT22;1506;48.932;9.478;2022-11-22T00:52:12;5.50;99.90
2993;DHT22;1506;48.932;9.478;2022-11-22T00:54:39;5.50;99.90
2993;DHT22;1506;48.932;9.478;2022-11-22T00:57:06;5.60;99.90
2993;DHT22;1506;48.932;9.478;2022-11-22T00:59:33;5.70;99.90
2993;DHT22;1506;48.932;9.478;2022-11-22T01:02:00;5.60;99.90
2993;DHT22;1506;48.932;9.478;2022-11-22T01:04:27;5.60;99.90
2993;DHT22;1506;48.932;9.478;2022-11-22T01:06:54;5.60;99.90
2993;DHT22;1506;48.932;9.478;2022-11-22T01:09:22;5.70;99.90
2993;DHT22;1506;48.932;9.478;2022-11-22T01:11:50;5.80;99.90
2993;DHT22;1506;48.932;9.478;2022-11-22T01:14:18;5.80;99.90
2993;DHT22;1506;48.932;9.478;2022-11-22T01:16:46;5.90;99.90
2993;DHT22;1506;48.932;9.478;2022-11-22T01:19:13;6.00;99.90
2993;DHT22;1506;48.932;9.478;2022-11-22T01:21:40;5.90;99.90
2993;DHT22;1506;48.932;9.478;2022-11-22T01:24:08;6.00;99.90
2993;DHT22;1506;48.932;9.478;2022-11-22T01:26:35;6.00;99.90
2993;DHT22;1506;48.932;9.478;2022-11-22T01:29:03;6.10;99.90
2993;DHT22;1506;48.932;9.478;2022-11-22T01:31:30;6.00;99.90
2993;DHT22;1506;48.932;9.478;2022-11-22T01:33:57;6.10;99.90
2993;DHT22;1506;48.932;9.478;2022-11-22T01:36:26;6.10;99.90
2993;DHT22;1506;48.932;9.478;2022-11-22T01:38:53;6.20;99.90
2993;DHT22;1506;48.932;9.478;2022-11-22T01:41:21;6.20;99.90
2993;DHT22;1506;48.932;9.478;2022-11-22T01:43:48;6.10;99.90
2993;DHT22;1506;48.932;9.478;2022-11-22T01:46:29;6.10;99.90
2993;DHT22;1506;48.932;9.478;2022-11-22T01:49:13;6.10;99.90
2993;DHT22;1506;48.932;9.478;2022-11-22T01:51:48;6.10;99.90
2993;DHT22;1506;48.932;9.478;2022-11-22T01:54:20;6.30;99.90
2993;DHT22;1506;48.932;9.478;2022-11-22T01:56:52;6.30;99.90
2993;DHT22;1506;48.932;9.478;2022-11-22T01:59:24;6.30;99.90
2993;DHT22;1506;48.932;9.478;2022-11-22T02:01:53;6.30;99.90
2993;DHT22;1506;48.932;9.478;2022-11-22T02:04:22;6.30;99.90
2993;DHT22;1506;48.932;9.478;2022-11-22T02:07:02;6.40;99.90
2993;DHT22;1506;48.932;9.478;2022-11-22T02:09:33;6.30;99.90
2993;DHT22;1506;48.932;9.478;2022-11-22T02:12:02;6.30;99.90
2993;DHT22;1506;48.932;9.478;2022-11-22T02:14:31;6.30;99.90
2993;DHT22;1506;48.932;9.478;2022-11-22T02:16:59;6.30;99.90
2993;DHT22;1506;48.932;9.478;2022-11-22T02:22:32;6.40;99.90
2993;DHT22;1506;48.932;9.478;2022-11-22T02:25:12;6.40;99.90
2993;DHT22;1506;48.932;9.478;2022-11-22T02:27:43;6.40;99.90
2993;DHT22;1506;48.932;9.478;2022-11-22T02:30:10;6.50;99.90
2993;DHT22;1506;48.932;9.478;2022-11-22T02:32:37;6.60;99.90
2993;DHT22;1506;48.932;9.478;2022-11-22T02:35:34;6.60;99.90
2993;DHT22;1506;48.932;9.478;2022-11-22T02:38:18;6.70;99.90
2993;DHT22;1506;48.932;9.478;2022-11-22T02:41:03;6.70;99.90
2993;DHT22;1506;48.932;9.478;2022-11-22T02:43:36;6.70;99.90
2993;DHT22;1506;48.932;9.478;2022-11-22T02:46:06;6.70;99.90
2993;DHT22;1506;48.932;9.478;2022-11-22T02:48:42;6.60;99.90
2993;DHT22;1506;48.932;9.478;2022-11-22T02:51:10;6.70;99.90
2993;DHT22;1506;48.932;9.478;2022-11-22T02:53:42;6.70;99.90
2993;DHT22;1506;48.932;9.478;2022-11-22T02:56:10;6.70;99.90
2993;DHT22;1506;48.932;9.478;2022-11-22T02:58:37;6.70;99.90
2993;DHT22;1506;48.932;9.478;2022-11-22T03:01:04;6.70;99.90
2993;DHT22;1506;48.932;9.478;2022-11-22T03:03:32;6.60;99.90
2993;DHT22;1506;48.932;9.478;2022-11-22T03:05:59;6.60;99.90
2993;DHT22;1506;48.932;9.478;2022-11-22T03:08:27;6.60;99.90
2993;DHT22;1506;48.932;9.478;2022-11-22T03:10:58;6.70;99.90
2993;DHT22;1506;48.932;9.478;2022-11-22T03:13:25;6.60;99.90
2993;DHT22;1506;48.932;9.478;2022-11-22T03:15:52;6.60;99.90
2993;DHT22;1506;48.932;9.478;2022-11-22T03:18:19;6.60;99.90
2993;DHT22;1506;48.932;9.478;2022-11-22T03:20:46;6.60;99.90
2993;DHT22;1506;48.932;9.478;2022-11-22T03:23:13;6.70;99.90
2993;DHT22;1506;48.932;9.478;2022-11-22T03:25:40;6.70;99.90
2993;DHT22;1506;48.932;9.478;2022-11-22T03:28:07;6.70;99.90
2993;DHT22;1506;48.932;9.478;2022-11-22T03:30:38;6.80;99.90
2993;DHT22;1506;48.932;9.478;2022-11-22T03:33:06;6.80;99.90
2993;DHT22;1506;48.932;9.478;2022-11-22T03:35:33;6.80;99.90
2993;DHT22;1506;48.932;9.478;2022-11-22T03:38:01;6.80;99.90
2993;DHT22;1506;48.932;9.478;2022-11-22T03:40:28;6.80;99.90
2993;DHT22;1506;48.932;9.478;2022-11-22T03:42:58;6.80;99.90
2993;DHT22;1506;48.932;9.478;2022-11-22T03:45:28;6.80;99.90
2993;DHT22;1506;48.932;9.478;2022-11-22T03:47:56;6.80;99.90
2993;DHT22;1506;48.932;9.478;2022-11-22T03:50:24;6.80;99.90
2993;DHT22;1506;48.932;9.478;2022-11-22T03:52:51;6.80;99.90
2993;DHT22;1506;48.932;9.478;2022-11-22T03:55:18;6.80;99.90
2993;DHT22;1506;48.932;9.478;2022-11-22T03:57:45;6.80;99.90
2993;DHT22;1506;48.932;9.478;2022-11-22T04:00:12;6.70;99.90
2993;DHT22;1506;48.932;9.478;2022-11-22T04:02:42;6.70;99.90
2993;DHT22;1506;48.932;9.478;2022-11-22T04:05:09;6.80;99.90
2993;DHT22;1506;48.932;9.478;2022-11-22T04:07:36;6.80;99.90
2993;DHT22;1506;48.932;9.478;2022-11-22T04:10:04;6.90;99.90
2993;DHT22;1506;48.932;9.478;2022-11-22T04:12:32;7.00;99.90
2993;DHT22;1506;48.932;9.478;2022-11-22T04:14:59;6.90;99.90
2993;DHT22;1506;48.932;9.478;2022-11-22T04:17:33;6.90;99.90
2993;DHT22;1506;48.932;9.478;2022-11-22T04:23:09;6.90;99.90
2993;DHT22;1506;48.932;9.478;2022-11-22T04:25:48;6.90;99.90
2993;DHT22;1506;48.932;9.478;2022-11-22T04:28:21;6.80;99.90
2993;DHT22;1506;48.932;9.478;2022-11-22T04:31:10;6.80;99.90
2993;DHT22;1506;48.932;9.478;2022-11-22T04:33:55;6.70;99.90
2993;DHT22;1506;48.932;9.478;2022-11-22T04:36:22;6.60;99.90
2993;DHT22;1506;48.932;9.478;2022-11-22T04:38:49;6.60;99.90
2993;DHT22;1506;48.932;9.478;2022-11-22T04:41:16;6.60;99.90
2993;DHT22;1506;48.932;9.478;2022-11-22T04:43:43;6.60;99.90
2993;DHT22;1506;48.932;9.478;2022-11-22T04:46:29;6.50;99.90
2993;DHT22;1506;48.932;9.478;2022-11-22T04:48:57;6.50;99.90
2993;DHT22;1506;48.932;9.478;2022-11-22T04:51:24;6.50;99.90
2993;DHT22;1506;48.932;9.478;2022-11-22T04:54:09;6.40;99.90
2993;DHT22;1506;48.932;9.478;2022-11-22T04:56:36;6.20;99.90
2993;DHT22;1506;48.932;9.478;2022-11-22T04:59:03;6.00;99.90
2993;DHT22;1506;48.932;9.478;2022-11-22T05:01:30;5.90;99.90
2993;DHT22;1506;48.932;9.478;2022-11-22T05:03:57;5.90;99.90
2993;DHT22;1506;48.932;9.478;2022-11-22T05:06:24;5.90;99.90
2993;DHT22;1506;48.932;9.478;2022-11-22T05:08:51;5.90;99.90
2993;DHT22;1506;48.932;9.478;2022-11-22T05:11:18;5.80;99.90
2993;DHT22;1506;48.932;9.478;2022-11-22T05:13:45;5.80;99.90
2993;DHT22;1506;48.932;9.478;2022-11-22T05:16:13;5.70;99.90
2993;DHT22;1506;48.932;9.478;2022-11-22T05:18:41;5.70;99.90
2993;DHT22;1506;48.932;9.478;2022-11-22T05:21:10;5.60;99.90
2993;DHT22;1506;48.932;9.478;2022-11-22T05:23:38;5.50;99.90
2993;DHT22;1506;48.932;9.478;2022-11-22T05:26:23;5.50;99.90
2993;DHT22;1506;48.932;9.478;2022-11-22T05:28:57;5.40;99.90
2993;DHT22;1506;48.932;9.478;2022-11-22T05:31:25;5.40;99.90
2993;DHT22;1506;48.932;9.478;2022-11-22T05:33:55;5.30;99.90
2993;DHT22;1506;48.932;9.478;2022-11-22T05:36:23;5.10;99.90
2993;DHT22;1506;48.932;9.478;2022-11-22T05:38:51;5.10;99.90
2993;DHT22;1506;48.932;9.478;2022-11-22T05:41:18;5.00;99.90
2993;DHT22;1506;48.932;9.478;2022-11-22T05:43:46;5.00;99.90
2993;DHT22;1506;48.932;9.478;2022-11-22T05:46:18;5.00;99.90
2993;DHT22;1506;48.932;9.478;2022-11-22T05:48:51;5.00;99.90
2993;DHT22;1506;48.932;9.478;2022-11-22T05:51:22;5.00;99.90
2993;DHT22;1506;48.932;9.478;2022-11-22T05:53:58;5.00;99.90
2993;DHT22;1506;48.932;9.478;2022-11-22T05:56:24;4.80;99.90
2993;DHT22;1506;48.932;9.478;2022-11-22T05:58:52;4.80;99.90
2993;DHT22;1506;48.932;9.478;2022-11-22T06:01:21;4.70;99.90
2993;DHT22;1506;48.932;9.478;2022-11-22T06:03:49;4.70;99.90
2993;DHT22;1506;48.932;9.478;2022-11-22T06:06:17;4.50;99.90
2993;DHT22;1506;48.932;9.478;2022-11-22T06:08:45;4.40;99.90
2993;DHT22;1506;48.932;9.478;2022-11-22T06:11:16;4.30;99.90
2993;DHT22;1506;48.932;9.478;2022-11-22T06:13:46;4.20;99.90
2993;DHT22;1506;48.932;9.478;2022-11-22T06:16:14;4.20;99.90
2993;DHT22;1506;48.932;9.478;2022-11-22T06:18:42;4.20;99.90
2993;DHT22;1506;48.932;9.478;2022-11-22T06:21:15;4.10;99.90
2993;DHT22;1506;48.932;9.478;2022-11-22T06:23:44;4.00;99.90
2993;DHT22;1506;48.932;9.478;2022-11-22T06:26:13;4.10;99.90
2993;DHT22;1506;48.932;9.478;2022-11-22T06:28:43;4.00;99.90
2993;DHT22;1506;48.932;9.478;2022-11-22T06:31:16;4.10;99.90
2993;DHT22;1506;48.932;9.478;2022-11-22T06:33:45;4.20;99.90
2993;DHT22;1506;48.932;9.478;2022-11-22T06:36:17;4.20;99.90
2993;DHT22;1506;48.932;9.478;2022-11-22T06:38:46;4.20;99.90
2993;DHT22;1506;48.932;9.478;2022-11-22T06:41:21;4.20;99.90
2993;DHT22;1506;48.932;9.478;2022-11-22T06:43:52;4.40;99.90
2993;DHT22;1506;48.932;9.478;2022-11-22T06:46:21;4.40;99.90
2993;DHT22;1506;48.932;9.478;2022-11-22T06:48:49;4.40;99.90
2993;DHT22;1506;48.932;9.478;2022-11-22T06:51:22;4.40;99.90
2993;DHT22;1506;48.932;9.478;2022-11-22T06:53:51;4.50;99.90
2993;DHT22;1506;48.932;9.478;2022-11-22T06:58:50;4.60;99.90
2993;DHT22;1506;48.932;9.478;2022-11-22T07:01:26;4.50;99.90
2993;DHT22;1506;48.932;9.478;2022-11-22T07:03:55;4.40;99.90
2993;DHT22;1506;48.932;9.478;2022-11-22T07:06:31;4.50;99.90
2993;DHT22;1506;48.932;9.478;2022-11-22T07:09:01;4.60;99.90
2993;DHT22;1506;48.932;9.478;2022-11-22T07:11:30;4.60;99.90
2993;DHT22;1506;48.932;9.478;2022-11-22T07:13:59;4.50;99.90
2993;DHT22;1506;48.932;9.478;2022-11-22T07:16:35;4.40;99.90
2993;DHT22;1506;48.932;9.478;2022-11-22T07:19:03;4.40;99.90
2993;DHT22;1506;48.932;9.478;2022-11-22T07:21:30;4.60;99.90
2993;DHT22;1506;48.932;9.478;2022-11-22T07:23:58;4.70;99.90
2993;DHT22;1506;48.932;9.478;2022-11-22T07:26:25;4.80;99.90
2993;DHT22;1506;48.932;9.478;2022-11-22T07:28:52;4.90;99.90
2993;DHT22;1506;48.932;9.478;2022-11-22T07:31:20;5.00;99.90
2993;DHT22;1506;48.932;9.478;2022-11-22T07:33:47;5.10;99.90
2993;DHT22;1506;48.932;9.478;2022-11-22T07:36:17;5.10;99.90
2993;DHT22;1506;48.932;9.478;2022-11-22T07:38:45;5.00;99.90
2993;DHT22;1506;48.932;9.478;2022-11-22T07:41:14;4.80;99.90
2993;DHT22;1506;48.932;9.478;2022-11-22T07:43:42;4.70;99.90
2993;DHT22;1506;48.932;9.478;2022-11-22T07:46:20;4.60;99.90
2993;DHT22;1506;48.932;9.478;2022-11-22T07:48:49;4.50;99.90
2993;DHT22;1506;48.932;9.478;2022-11-22T07:51:16;4.50;99.90
2993;DHT22;1506;48.932;9.478;2022-11-22T07:53:44;4.60;99.90
2993;DHT22;1506;48.932;9.478;2022-11-22T07:56:11;4.90;99.90
2993;DHT22;1506;48.932;9.478;2022-11-22T07:58:38;5.20;99.90
2993;DHT22;1506;48.932;9.478;2022-11-22T08:01:10;5.40;99.90
2993;DHT22;1506;48.932;9.478;2022-11-22T08:03:40;5.20;99.90
2993;DHT22;1506;48.932;9.478;2022-11-22T08:06:08;5.30;99.90
2993;DHT22;1506;48.932;9.478;2022-11-22T08:08:37;5.40;99.90
2993;DHT22;1506;48.932;9.478;2022-11-22T08:11:05;5.50;99.90
2993;DHT22;1506;48.932;9.478;2022-11-22T08:13:33;5.50;99.90
2993;DHT22;1506;48.932;9.478;2022-11-22T08:16:07;5.60;99.90
2993;DHT22;1506;48.932;9.478;2022-11-22T08:18:36;5.60;99.90
2993;DHT22;1506;48.932;9.478;2022-11-22T08:21:06;5.70;99.90
2993;DHT22;1506;48.932;9.478;2022-11-22T08:23:38;5.80;99.90
2993;DHT22;1506;48.932;9.478;2022-11-22T08:26:07;5.80;99.90
2993;DHT22;1506;48.932;9.478;2022-11-22T08:28:38;5.70;99.90
2993;DHT22;1506;48.932;9.478;2022-11-22T08:31:09;5.80;99.90
2993;DHT22;1506;48.932;9.478;2022-11-22T08:33:39;5.90;99.90
2993;DHT22;1506;48.932;9.478;2022-11-22T08:36:06;5.90;99.90
2993;DHT22;1506;48.932;9.478;2022-11-22T08:38:34;5.90;99.90
2993;DHT22;1506;48.932;9.478;2022-11-22T08:41:01;6.00;99.90
2993;DHT22;1506;48.932;9.478;2022-11-22T08:43:30;6.00;99.90
2993;DHT22;1506;48.932;9.478;2022-11-22T08:45:58;6.10;99.90
2993;DHT22;1506;48.932;9.478;2022-11-22T08:48:26;6.20;99.90
2993;DHT22;1506;48.932;9.478;2022-11-22T08:50:56;6.40;99.90
2993;DHT22;1506;48.932;9.478;2022-11-22T08:53:26;6.50;99.90
2993;DHT22;1506;48.932;9.478;2022-11-22T08:55:54;6.50;99.90
2993;DHT22;1506;48.932;9.478;2022-11-22T08:58:21;6.60;99.90
2993;DHT22;1506;48.932;9.478;2022-11-22T09:00:48;6.60;99.90
2993;DHT22;1506;48.932;9.478;2022-11-22T09:03:15;6.70;99.90
2993;DHT22;1506;48.932;9.478;2022-11-22T09:05:42;6.80;99.90
2993;DHT22;1506;48.932;9.478;2022-11-22T09:08:32;6.80;99.90
2993;DHT22;1506;48.932;9.478;2022-11-22T09:11:15;6.90;99.90
2993;DHT22;1506;48.932;9.478;2022-11-22T09:13:44;6.90;99.90
2993;DHT22;1506;48.932;9.478;2022-11-22T09:16:18;7.10;99.90
2993;DHT22;1506;48.932;9.478;2022-11-22T09:18:46;7.10;99.90
2993;DHT22;1506;48.932;9.478;2022-11-22T09:21:16;7.20;99.90
2993;DHT22;1506;48.932;9.478;2022-11-22T09:23:47;7.20;99.90
2993;DHT22;1506;48.932;9.478;2022-11-22T09:26:17;7.20;99.90
2993;DHT22;1506;48.932;9.478;2022-11-22T09:28:45;7.10;99.90
2993;DHT22;1506;48.932;9.478;2022-11-22T09:31:18;7.10;99.90
2993;DHT22;1506;48.932;9.478;2022-11-22T09:33:47;7.30;99.90
2993;DHT22;1506;48.932;9.478;2022-11-22T09:36:20;7.20;99.90
2993;DHT22;1506;48.932;9.478;2022-11-22T09:38:50;7.20;99.90
2993;DHT22;1506;48.932;9.478;2022-11-22T09:53:15;7.20;99.90
2993;DHT22;1506;48.932;9.478;2022-11-22T09:55:56;7.30;99.90
2993;DHT22;1506;48.932;9.478;2022-11-22T09:58:32;7.20;99.90
2993;DHT22;1506;48.932;9.478;2022-11-22T10:03:59;7.30;99.90
2993;DHT22;1506;48.932;9.478;2022-11-22T10:10:08;7.60;99.90
2993;DHT22;1506;48.932;9.478;2022-11-22T10:13:00;7.70;99.90
2993;DHT22;1506;48.932;9.478;2022-11-22T10:18:35;7.80;99.90
2993;DHT22;1506;48.932;9.478;2022-11-22T10:21:14;8.00;99.90
2993;DHT22;1506;48.932;9.478;2022-11-22T10:23:41;8.00;99.90
2993;DHT22;1506;48.932;9.478;2022-11-22T10:26:26;8.00;88.40
2993;DHT22;1506;48.932;9.478;2022-11-22T10:29:08;8.00;99.90
2993;DHT22;1506;48.932;9.478;2022-11-22T10:34:24;8.30;76.30
2993;DHT22;1506;48.932;9.478;2022-11-22T10:37:22;8.20;58.50
2993;DHT22;1506;48.932;9.478;2022-11-22T10:40:07;8.10;71.10
2993;DHT22;1506;48.932;9.478;2022-11-22T10:45:48;8.30;35.00
2993;DHT22;1506;48.932;9.478;2022-11-22T11:00:12;8.10;1.00
2993;DHT22;1506;48.932;9.478;2022-11-22T11:03:03;8.10;1.00
2993;DHT22;1506;48.932;9.478;2022-11-22T11:09:04;8.20;1.00
2993;DHT22;1506;48.932;9.478;2022-11-22T11:12:17;8.30;1.00
2993;DHT22;1506;48.932;9.478;2022-11-22T11:15:03;8.40;1.00
2993;DHT22;1506;48.932;9.478;2022-11-22T11:17:35;8.30;1.00
2993;DHT22;1506;48.932;9.478;2022-11-22T11:20:15;8.40;1.00
2993;DHT22;1506;48.932;9.478;2022-11-22T11:22:47;8.60;1.00
2993;DHT22;1506;48.932;9.478;2022-11-22T11:25:35;8.70;1.00
2993;DHT22;1506;48.932;9.478;2022-11-22T11:28:17;8.50;4.80
2993;DHT22;1506;48.932;9.478;2022-11-22T11:30:49;8.70;9.50
2993;DHT22;1506;48.932;9.478;2022-11-22T11:36:03;8.60;4.60
2993;DHT22;1506;48.932;9.478;2022-11-22T11:44:00;8.60;1.00
2993;DHT22;1506;48.932;9.478;2022-11-22T11:49:24;8.30;1.00
2993;DHT22;1506;48.932;9.478;2022-11-22T11:52:02;8.30;94.40
2993;DHT22;1506;48.932;9.478;2022-11-22T11:54:44;8.30;1.00
2993;DHT22;1506;48.932;9.478;2022-11-22T11:57:34;8.30;1.00
2993;DHT22;1506;48.932;9.478;2022-11-22T12:00:15;8.40;44.60
2993;DHT22;1506;48.932;9.478;2022-11-22T12:02:45;8.20;99.90
2993;DHT22;1506;48.932;9.478;2022-11-22T12:07:45;8.30;99.90
2993;DHT22;1506;48.932;9.478;2022-11-22T12:10:43;8.40;99.90
2993;DHT22;1506;48.932;9.478;2022-11-22T12:16:17;8.30;99.90
2993;DHT22;1506;48.932;9.478;2022-11-22T12:19:12;8.50;1.00
2993;DHT22;1506;48.932;9.478;2022-11-22T12:24:51;8.20;1.00
2993;DHT22;1506;48.932;9.478;2022-11-22T12:27:41;8.30;1.00
2993;DHT22;1506;48.932;9.478;2022-11-22T12:30:11;8.30;1.00
2993;DHT22;1506;48.932;9.478;2022-11-22T12:35:48;8.40;1.00
2993;DHT22;1506;48.932;9.478;2022-11-22T12:38:24;8.60;99.90
2993;DHT22;1506;48.932;9.478;2022-11-22T12:40:57;8.70;99.90
2993;DHT22;1506;48.932;9.478;2022-11-22T12:43:34;8.70;1.00
2993;DHT22;1506;48.932;9.478;2022-11-22T12:46:11;8.70;1.00
2993;DHT22;1506;48.932;9.478;2022-11-22T12:49:05;8.70;99.90
2993;DHT22;1506;48.932;9.478;2022-11-22T12:54:36;8.80;99.90
2993;DHT22;1506;48.932;9.478;2022-11-22T12:57:12;8.80;99.90
2993;DHT22;1506;48.932;9.478;2022-11-22T12:59:56;9.30;99.90
2993;DHT22;1506;48.932;9.478;2022-11-22T13:05:12;9.50;99.90
2993;DHT22;1506;48.932;9.478;2022-11-22T13:10:39;9.40;1.00
2993;DHT22;1506;48.932;9.478;2022-11-22T13:13:23;9.40;1.00
2993;DHT22;1506;48.932;9.478;2022-11-22T13:15:54;9.40;1.00
2993;DHT22;1506;48.932;9.478;2022-11-22T13:18:27;9.60;1.00
2993;DHT22;1506;48.932;9.478;2022-11-22T13:21:12;9.80;1.00
2993;DHT22;1506;48.932;9.478;2022-11-22T13:29:35;9.40;1.00
2993;DHT22;1506;48.932;9.478;2022-11-22T13:34:59;10.10;1.00
2993;DHT22;1506;48.932;9.478;2022-11-22T13:37:32;10.10;99.90
2993;DHT22;1506;48.932;9.478;2022-11-22T13:42:42;9.70;99.90
2993;DHT22;1506;48.932;9.478;2022-11-22T13:45:19;9.60;99.90
2993;DHT22;1506;48.932;9.478;2022-11-22T13:47:51;9.20;99.90
2993;DHT22;1506;48.932;9.478;2022-11-22T13:53:23;9.00;1.00
2993;DHT22;1506;48.932;9.478;2022-11-22T13:55:52;9.10;1.00
2993;DHT22;1506;48.932;9.478;2022-11-22T14:00:53;9.00;1.00
2993;DHT22;1506;48.932;9.478;2022-11-22T14:03:36;9.20;1.00
2993;DHT22;1506;48.932;9.478;2022-11-22T14:06:25;9.30;1.00
2993;DHT22;1506;48.932;9.478;2022-11-22T14:24:28;8.80;1.00
2993;DHT22;1506;48.932;9.478;2022-11-22T14:44:26;8.40;99.90
2993;DHT22;1506;48.932;9.478;2022-11-22T14:47:03;8.20;99.90
2993;DHT22;1506;48.932;9.478;2022-11-22T14:49:41;8.10;99.90
2993;DHT22;1506;48.932;9.478;2022-11-22T14:52:20;8.10;99.90
2993;DHT22;1506;48.932;9.478;2022-11-22T14:54:58;8.10;1.00
2993;DHT22;1506;48.932;9.478;2022-11-22T14:57:28;8.10;1.00
2993;DHT22;1506;48.932;9.478;2022-11-22T15:00:18;8.20;1.00
2993;DHT22;1506;48.932;9.478;2022-11-22T15:07:02;8.00;1.00
2993;DHT22;1506;48.932;9.478;2022-11-22T15:09:55;8.00;1.00
2993;DHT22;1506;48.932;9.478;2022-11-22T15:15:45;8.00;1.00
2993;DHT22;1506;48.932;9.478;2022-11-22T15:18:36;7.90;99.90
2993;DHT22;1506;48.932;9.478;2022-11-22T15:21:31;8.00;1.00
2993;DHT22;1506;48.932;9.478;2022-11-22T15:24:22;7.90;1.00
2993;DHT22;1506;48.932;9.478;2022-11-22T15:27:40;7.90;1.00
2993;DHT22;1506;48.932;9.478;2022-11-22T15:30:32;7.80;1.00
2993;DHT22;1506;48.932;9.478;2022-11-22T15:33:29;7.70;99.90
2993;DHT22;1506;48.932;9.478;2022-11-22T15:39:27;7.70;99.90
2993;DHT22;1506;48.932;9.478;2022-11-22T15:42:17;7.70;1.00
2993;DHT22;1506;48.932;9.478;2022-11-22T15:45:05;7.60;99.90
2993;DHT22;1506;48.932;9.478;2022-11-22T15:48:15;7.60;99.90
2993;DHT22;1506;48.932;9.478;2022-11-22T15:59:40;7.50;99.90
2993;DHT22;1506;48.932;9.478;2022-11-22T16:02:13;7.40;1.00
2993;DHT22;1506;48.932;9.478;2022-11-22T16:07:53;7.40;99.90
2993;DHT22;1506;48.932;9.478;2022-11-22T16:10:29;7.40;99.90
2993;DHT22;1506;48.932;9.478;2022-11-22T16:18:40;7.40;99.90
2993;DHT22;1506;48.932;9.478;2022-11-22T16:23:45;7.40;99.90
2993;DHT22;1506;48.932;9.478;2022-11-22T16:26:25;7.40;1.00
2993;DHT22;1506;48.932;9.478;2022-11-22T16:29:08;7.30;1.00
2993;DHT22;1506;48.932;9.478;2022-11-22T16:31:37;7.30;99.90
2993;DHT22;1506;48.932;9.478;2022-11-22T16:34:10;7.30;1.00
2993;DHT22;1506;48.932;9.478;2022-11-22T16:36:39;7.30;1.00
2993;DHT22;1506;48.932;9.478;2022-11-22T16:39:06;7.40;1.00
2993;DHT22;1506;48.932;9.478;2022-11-22T16:41:33;7.30;1.00
2993;DHT22;1506;48.932;9.478;2022-11-22T16:44:05;7.30;1.00
2993;DHT22;1506;48.932;9.478;2022-11-22T16:46:36;7.20;1.00
2993;DHT22;1506;48.932;9.478;2022-11-22T16:49:15;7.10;1.00
2993;DHT22;1506;48.932;9.478;2022-11-22T16:51:45;7.10;99.90
2993;DHT22;1506;48.932;9.478;2022-11-22T16:54:15;7.00;99.90
2993;DHT22;1506;48.932;9.478;2022-11-22T16:56:44;7.10;1.00
2993;DHT22;1506;48.932;9.478;2022-11-22T16:59:11;7.10;99.90
2993;DHT22;1506;48.932;9.478;2022-11-22T17:01:42;7.10;99.90
2993;DHT22;1506;48.932;9.478;2022-11-22T17:04:21;7.10;1.00
2993;DHT22;1506;48.932;9.478;2022-11-22T17:06:49;7.10;99.90
2993;DHT22;1506;48.932;9.478;2022-11-22T17:09:16;7.20;99.90
2993;DHT22;1506;48.932;9.478;2022-11-22T17:11:44;7.20;1.00
2993;DHT22;1506;48.932;9.478;2022-11-22T17:14:15;7.20;99.90
2993;DHT22;1506;48.932;9.478;2022-11-22T17:16:44;7.30;14.20
2993;DHT22;1506;48.932;9.478;2022-11-22T17:19:13;7.30;99.90
2993;DHT22;1506;48.932;9.478;2022-11-22T17:22:02;7.40;99.90
2993;DHT22;1506;48.932;9.478;2022-11-22T17:24:32;7.40;99.90
2993;DHT22;1506;48.932;9.478;2022-11-22T17:27:00;7.40;99.90
2993;DHT22;1506;48.932;9.478;2022-11-22T17:29:27;7.30;1.00
2993;DHT22;1506;48.932;9.478;2022-11-22T17:32:13;7.40;99.90
2993;DHT22;1506;48.932;9.478;2022-11-22T17:34:40;7.40;99.90
2993;DHT22;1506;48.932;9.478;2022-11-22T17:37:11;7.40;99.90
2993;DHT22;1506;48.932;9.478;2022-11-22T17:39:39;7.40;99.90
2993;DHT22;1506;48.932;9.478;2022-11-22T17:42:06;7.40;1.00
2993;DHT22;1506;48.932;9.478;2022-11-22T17:44:33;7.50;99.90
2993;DHT22;1506;48.932;9.478;2022-11-22T17:47:00;7.50;99.90
2993;DHT22;1506;48.932;9.478;2022-11-22T17:49:27;7.40;99.90
2993;DHT22;1506;48.932;9.478;2022-11-22T17:51:55;7.40;1.00
2993;DHT22;1506;48.932;9.478;2022-11-22T17:54:22;7.40;99.90
2993;DHT22;1506;48.932;9.478;2022-11-22T17:56:49;7.30;99.90
2993;DHT22;1506;48.932;9.478;2022-11-22T17:59:16;7.30;99.90
2993;DHT22;1506;48.932;9.478;2022-11-22T18:01:43;7.30;99.90
2993;DHT22;1506;48.932;9.478;2022-11-22T18:04:10;7.30;1.00
2993;DHT22;1506;48.932;9.478;2022-11-22T18:06:37;7.30;18.50
2993;DHT22;1506;48.932;9.478;2022-11-22T18:09:04;7.20;99.90
2993;DHT22;1506;48.932;9.478;2022-11-22T18:11:31;7.30;1.00
2993;DHT22;1506;48.932;9.478;2022-11-22T18:13:58;7.30;99.90
2993;DHT22;1506;48.932;9.478;2022-11-22T18:16:25;7.30;99.90
2993;DHT22;1506;48.932;9.478;2022-11-22T18:18:55;7.40;1.00
2993;DHT22;1506;48.932;9.478;2022-11-22T18:21:28;7.30;99.90
2993;DHT22;1506;48.932;9.478;2022-11-22T18:23:58;7.40;12.10
2993;DHT22;1506;48.932;9.478;2022-11-22T18:26:26;7.40;99.90
2993;DHT22;1506;48.932;9.478;2022-11-22T18:29:10;7.50;99.90
2993;DHT22;1506;48.932;9.478;2022-11-22T18:31:59;7.40;8.10
2993;DHT22;1506;48.932;9.478;2022-11-22T18:34:27;7.40;99.90
2993;DHT22;1506;48.932;9.478;2022-11-22T18:36:54;7.40;1.00
2993;DHT22;1506;48.932;9.478;2022-11-22T18:39:36;7.50;99.90
2993;DHT22;1506;48.932;9.478;2022-11-22T18:42:12;7.50;1.00
2993;DHT22;1506;48.932;9.478;2022-11-22T18:44:40;7.50;99.90
2993;DHT22;1506;48.932;9.478;2022-11-22T18:47:08;7.50;1.00
2993;DHT22;1506;48.932;9.478;2022-11-22T18:49:35;7.60;1.00
2993;DHT22;1506;48.932;9.478;2022-11-22T18:52:03;7.70;3.60
2993;DHT22;1506;48.932;9.478;2022-11-22T18:54:30;7.70;1.00
2993;DHT22;1506;48.932;9.478;2022-11-22T18:56:57;7.70;1.00
2993;DHT22;1506;48.932;9.478;2022-11-22T18:59:24;7.80;1.00
2993;DHT22;1506;48.932;9.478;2022-11-22T19:01:51;7.80;99.90
2993;DHT22;1506;48.932;9.478;2022-11-22T19:04:18;7.90;94.80
2993;DHT22;1506;48.932;9.478;2022-11-22T19:06:45;7.80;1.00
2993;DHT22;1506;48.932;9.478;2022-11-22T19:09:12;7.80;99.90
2993;DHT22;1506;48.932;9.478;2022-11-22T19:11:39;7.80;99.90
2993;DHT22;1506;48.932;9.478;2022-11-22T19:14:07;7.70;1.00
2993;DHT22;1506;48.932;9.478;2022-11-22T19:16:34;7.70;99.90
2993;DHT22;1506;48.932;9.478;2022-11-22T19:19:01;7.70;93.50
2993;DHT22;1506;48.932;9.478;2022-11-22T19:21:29;7.70;1.00
2993;DHT22;1506;48.932;9.478;2022-11-22T19:23:56;7.60;1.00
2993;DHT22;1506;48.932;9.478;2022-11-22T19:26:25;7.60;99.90
2993;DHT22;1506;48.932;9.478;2022-11-22T19:28:53;7.60;1.00
2993;DHT22;1506;48.932;9.478;2022-11-22T19:31:26;7.60;99.90
2993;DHT22;1506;48.932;9.478;2022-11-22T19:33:55;7.50;1.00
2993;DHT22;1506;48.932;9.478;2022-11-22T19:36:24;7.50;1.00